createdAt,value
2016-09-15T06:01:44.619Z,66.93
2016-09-15T06:02:31.562Z,66.55
2016-09-15T06:03:30.564Z,65.97
2016-09-15T06:04:30.888Z,66.07
2016-09-15T06:05:30.492Z,66.26
2016-09-15T06:06:31.025Z,66.36
2016-09-15T06:07:30.681Z,67.03
2016-09-15T06:08:30.974Z,66.93
2016-09-15T06:09:30.370Z,66.84
2016-09-15T06:10:29.975Z,67.13
2016-09-15T06:11:30.357Z,68.24
2016-09-15T06:12:30.794Z,68.24
2016-09-15T06:13:31.008Z,67.29
2016-09-15T06:14:31.028Z,67.32
2016-09-15T06:15:31.293Z,67.22
2016-09-15T06:16:30.372Z,67.03
2016-09-15T06:17:30.311Z,66.26
2016-09-15T06:18:30.542Z,65.62
2016-09-15T06:19:30.819Z,65.33
2016-09-15T06:20:30.378Z,66.1
2016-09-15T06:21:30.944Z,65.62
2016-09-15T06:22:31.019Z,65.62
2016-09-15T06:23:30.676Z,64.85
2016-09-15T06:24:30.620Z,65.05
2016-09-15T06:25:31.718Z,65.05
2016-09-15T06:26:31.993Z,64.76
2016-09-15T06:27:30.969Z,65.05
2016-09-15T06:28:32.233Z,64.28
2016-09-15T06:29:31.069Z,64.37
2016-09-15T06:30:31.424Z,64.69
2016-09-15T06:31:31.075Z,64.37
2016-09-15T06:32:32.211Z,64.12
2016-09-15T06:33:31.594Z,63.06
2016-09-15T06:34:31.278Z,62.68
2016-09-15T06:35:31.040Z,64.31
2016-09-15T06:36:30.959Z,64.12
2016-09-15T06:37:30.812Z,65.08
2016-09-15T06:38:30.673Z,64.4
2016-09-15T06:39:31.313Z,64.02
2016-09-15T06:40:31.822Z,65.08
2016-09-15T06:41:31.460Z,65.17
2016-09-15T06:42:30.952Z,64.5
2016-09-15T06:43:31.693Z,62.77
2016-09-15T06:44:31.903Z,62.8
2016-09-15T06:45:32.131Z,63.15
2016-09-15T06:46:32.029Z,62.77
2016-09-15T06:47:32.776Z,62.41
2016-09-15T06:48:32.721Z,61.36
2016-09-15T06:49:31.888Z,60.11
2016-09-15T06:50:31.660Z,60.69
2016-09-15T06:51:31.785Z,61.84
2016-09-15T06:52:31.498Z,63.99
2016-09-15T06:53:31.463Z,63.95
2016-09-15T06:54:31.441Z,62.61
2016-09-15T06:55:31.956Z,61.94
2016-09-15T06:56:32.226Z,61.58
2016-09-15T06:57:32.012Z,60.52
2016-09-15T06:58:31.897Z,59.94
2016-09-15T06:59:31.597Z,59.56
2016-09-15T07:00:32.343Z,58.31
2016-09-15T07:01:31.790Z,58.6
2016-09-15T07:02:33.065Z,57.57
2016-09-15T07:03:31.744Z,57.37
2016-09-15T07:04:31.560Z,57.37
2016-09-15T07:05:31.911Z,57.37
2016-09-15T07:06:32.137Z,56.7
2016-09-15T07:07:32.110Z,56.73
2016-09-15T07:08:31.284Z,56.92
2016-09-15T07:09:32.189Z,57.21
2016-09-15T07:10:32.508Z,57.31
2016-09-15T07:11:31.996Z,56.82
2016-09-15T07:12:32.080Z,56.44
2016-09-15T07:13:32.399Z,56.15
2016-09-15T07:14:34.120Z,56.25
2016-09-15T07:15:32.039Z,56.15
2016-09-15T07:16:32.212Z,56.05
2016-09-15T07:17:32.002Z,55.02
2016-09-15T07:18:32.819Z,54.25
2016-09-15T07:19:32.814Z,55.22
2016-09-15T07:20:32.856Z,55.41
2016-09-15T07:21:32.967Z,56.09
2016-09-15T07:22:32.871Z,54.57
2016-09-15T07:23:32.703Z,52.55
2016-09-15T07:24:32.887Z,50.74
2016-09-15T07:25:31.944Z,50.26
2016-09-15T07:26:33.439Z,50.35
2016-09-15T07:27:32.694Z,50.93
2016-09-15T07:28:32.920Z,49.96
2016-09-15T07:29:32.270Z,49.77
2016-09-15T07:30:32.319Z,50.18
2016-09-15T07:31:32.744Z,50.09
2016-09-15T07:32:32.622Z,50.28
2016-09-15T07:33:32.623Z,50.38
2016-09-15T07:34:32.594Z,50.28
2016-09-15T07:35:32.793Z,51.05
2016-09-15T07:36:32.549Z,49.8
2016-09-15T07:37:33.027Z,48.57
2016-09-15T07:38:34.233Z,48.86
2016-09-15T07:39:33.005Z,48.21
2016-09-15T07:40:34.050Z,47.81
2016-09-15T07:41:32.695Z,48.18
2016-09-15T07:42:32.935Z,47.99
2016-09-15T07:43:34.390Z,47.41
2016-09-15T07:44:32.926Z,47.72
2016-09-15T07:45:32.909Z,47.53
2016-09-15T07:46:33.491Z,47.63
2016-09-15T07:47:33.182Z,48.69
2016-09-15T07:48:33.107Z,48.28
2016-09-15T07:49:32.599Z,47.53
2016-09-15T07:50:33.631Z,47.99
2016-09-15T07:51:33.618Z,47.31
2016-09-15T07:52:33.099Z,48.3
2016-09-15T07:53:34.284Z,47.5
2016-09-15T07:54:34.416Z,46.95
2016-09-15T07:55:34.352Z,46.47
2016-09-15T07:56:33.365Z,46
2016-09-15T07:57:34.029Z,45.74
2016-09-15T07:58:33.574Z,46.9
2016-09-15T07:59:33.570Z,45.79
2016-09-15T08:00:34.292Z,45.83
2016-09-15T08:01:33.724Z,46.42
2016-09-15T08:02:33.545Z,45.76
2016-09-15T08:03:34.103Z,44.79
2016-09-15T08:04:34.053Z,45.66
2016-09-15T08:05:34.266Z,45.06
2016-09-15T08:45:56.980Z,40.69
2016-09-15T08:46:56.907Z,41.17
2016-09-15T08:47:56.292Z,41.27
2016-09-15T08:48:57.367Z,41.37
2016-09-15T08:49:56.779Z,40.61
2016-09-15T08:50:56.432Z,40.03
2016-09-15T08:51:56.925Z,40.23
2016-09-15T08:52:56.506Z,39.65
2016-09-15T08:53:56.890Z,39.26
2016-09-15T08:54:56.559Z,39.26
2016-09-15T08:55:56.795Z,40.13
2016-09-15T08:56:57.857Z,40.21
2016-09-15T08:57:56.877Z,40.42
2016-09-15T08:58:57.570Z,41.55
2016-09-15T08:59:56.560Z,40.77
2016-09-15T09:00:57.012Z,41.16
2016-09-15T09:01:57.446Z,40.71
2016-09-15T09:02:56.406Z,39.92
2016-09-15T09:03:56.731Z,38.87
2016-09-15T09:04:57.720Z,39.26
2016-09-15T09:05:56.974Z,38.62
2016-09-15T09:06:57.463Z,39.08
2016-09-15T09:07:57.897Z,39.47
2016-09-15T09:08:57.687Z,39.47
2016-09-15T09:09:58.196Z,39.65
2016-09-15T09:10:57.350Z,39.28
2016-09-15T09:11:57.557Z,40.13
2016-09-15T09:12:57.785Z,39.26
2016-09-15T09:13:57.780Z,39.86
2016-09-15T09:14:57.706Z,39.65
2016-09-15T09:15:57.096Z,38.6
2016-09-15T09:16:57.506Z,39.98
2016-09-15T09:17:58.016Z,39.76
2016-09-15T09:18:58.145Z,38.79
2016-09-15T09:19:59.273Z,38.62
2016-09-15T09:20:58.575Z,38.04
2016-09-15T09:21:58.256Z,39.49
2016-09-15T09:22:58.642Z,38.89
2016-09-15T09:23:57.789Z,38.32
2016-09-15T09:24:57.996Z,38.54
2016-09-15T09:25:57.810Z,38.42
2016-09-15T09:26:58.473Z,38.71
2016-09-15T09:27:58.064Z,38.91
2016-09-15T09:28:58.215Z,38.62
2016-09-15T09:29:58.545Z,38.44
2016-09-15T09:30:58.832Z,39.41
2016-09-15T09:31:57.496Z,37.86
2016-09-15T09:32:58.546Z,38.25
2016-09-15T09:33:58.292Z,39.32
2016-09-15T09:34:58.004Z,39.36
2016-09-15T09:35:58.739Z,39.2
2016-09-15T09:36:57.962Z,38.95
2016-09-15T09:37:57.279Z,37.37
2016-09-15T09:38:59.356Z,38.17
2016-09-15T09:39:57.703Z,37.39
2016-09-15T09:40:58.820Z,38.25
2016-09-15T09:41:57.888Z,37.37
2016-09-15T09:42:58.257Z,36.63
2016-09-15T09:43:58.464Z,36.65
2016-09-15T09:44:58.179Z,37.12
2016-09-15T09:45:59.483Z,37.1
2016-09-15T09:46:58.738Z,38.37
2016-09-15T09:47:59.023Z,39.04
2016-09-15T09:48:58.650Z,37.96
2016-09-15T09:49:58.149Z,38.83
2016-09-15T09:51:00.116Z,37.02
2016-09-15T09:52:00.297Z,37.39
2016-09-15T09:52:58.664Z,38.46
2016-09-15T09:53:58.314Z,37.86
2016-09-15T09:54:58.105Z,38.34
2016-09-15T09:55:58.416Z,37.8
2016-09-15T09:56:59.631Z,36.75
2016-09-15T09:58:00.156Z,36.65
2016-09-15T09:58:58.714Z,35.89
2016-09-15T09:59:58.461Z,35.99
2016-09-15T10:00:59.664Z,35.89
2016-09-15T10:01:58.302Z,36.85
2016-09-15T10:02:58.360Z,37.32
2016-09-15T10:03:59.203Z,38.25
2016-09-15T10:04:58.758Z,35.96
2016-09-15T10:05:58.594Z,35.02
2016-09-15T10:06:59.459Z,35.29
2016-09-15T10:08:00.226Z,34.43
2016-09-15T10:08:58.785Z,33.2
2016-09-15T10:09:59.643Z,35.28
2016-09-15T10:10:58.810Z,35.83
2016-09-15T10:11:58.875Z,35.11
2016-09-15T10:12:59.577Z,35.29
2016-09-15T10:13:59.808Z,34.94
2016-09-15T10:14:59.199Z,36.65
2016-09-15T10:15:59.258Z,35.8
2016-09-15T10:16:59.711Z,36.12
2016-09-15T10:18:00.113Z,36.2
2016-09-15T10:18:59.024Z,36.49
2016-09-15T10:19:59.846Z,36.75
2016-09-15T10:21:00.585Z,36.24
2016-09-15T10:21:59.685Z,35.6
2016-09-15T10:22:59.166Z,35.21
2016-09-15T10:23:59.120Z,35.52
2016-09-15T10:25:00.268Z,34.76
2016-09-15T10:26:00.277Z,35.8
2016-09-15T10:27:00.687Z,34.29
2016-09-15T10:27:59.208Z,34.89
2016-09-15T10:28:59.434Z,35.02
2016-09-15T10:30:00.967Z,36.1
2016-09-15T10:30:59.752Z,35.34
2016-09-15T10:31:59.771Z,36.22
2016-09-15T10:32:59.954Z,34.27
2016-09-15T10:34:00.456Z,35.02
2016-09-15T10:35:00.952Z,34.66
2016-09-15T10:36:00.522Z,33.59
2016-09-15T10:37:01.116Z,33.92
2016-09-15T10:39:00.313Z,32.7
2016-09-15T10:40:00.693Z,32.84
2016-09-15T10:40:59.594Z,33.46
2016-09-15T10:41:59.819Z,32.81
2016-09-15T10:43:00.313Z,33.62
2016-09-15T10:44:01.864Z,35.05
2016-09-15T10:44:59.845Z,34.01
2016-09-15T10:46:00.972Z,33.72
2016-09-15T10:47:00.555Z,33.77
2016-09-15T10:48:00.029Z,32.35
2016-09-15T10:49:00.522Z,32.78
2016-09-15T10:50:00.933Z,33.17
2016-09-15T10:51:01.191Z,31.87
2016-09-15T10:52:00.643Z,32.48
2016-09-15T10:53:00.753Z,34.01
2016-09-15T10:54:01.893Z,32.58
2016-09-15T10:55:01.583Z,30.54
2016-09-15T10:56:01.248Z,30.08
2016-09-15T10:57:01.306Z,32.73
2016-09-15T10:58:01.463Z,31.57
2016-09-15T10:59:00.591Z,32.7
2016-09-15T11:00:01.225Z,31.98
2016-09-15T11:01:00.688Z,31.41
2016-09-15T11:02:00.874Z,32.5
2016-09-15T11:03:00.900Z,34.29
2016-09-15T11:04:00.856Z,34.17
2016-09-15T11:05:00.545Z,32.63
2016-09-15T11:06:00.750Z,32.78
2016-09-15T11:07:01.318Z,32.01
2016-09-15T11:08:01.005Z,31.6
2016-09-15T11:09:01.164Z,32.01
2016-09-15T11:10:02.951Z,30.08
2016-09-15T11:11:01.054Z,31.54
2016-09-15T11:12:00.737Z,32.76
2016-09-15T11:13:01.155Z,32.75
2016-09-15T11:14:01.147Z,32.76
2016-09-15T11:15:01.659Z,31.7
2016-09-15T11:16:01.553Z,31.13
2016-09-15T11:17:00.902Z,31.54
2016-09-15T11:18:01.390Z,31.79
2016-09-15T11:19:01.464Z,32.96
2016-09-15T11:20:01.464Z,33.8
2016-09-15T11:21:01.569Z,31.2
2016-09-15T11:22:00.464Z,32.62
2016-09-15T11:23:01.580Z,32.97
2016-09-15T11:24:01.761Z,32.68
2016-09-15T11:25:02.526Z,32.18
2016-09-15T11:26:02.255Z,32.75
2016-09-15T11:27:01.595Z,31.82
2016-09-15T11:28:01.459Z,32.5
2016-09-15T11:29:01.408Z,31.31
2016-09-15T11:30:01.652Z,32.5
2016-09-15T11:31:01.669Z,32.42
2016-09-15T11:32:01.305Z,31.13
2016-09-15T11:33:02.078Z,31.26
2016-09-15T11:34:02.211Z,30.38
2016-09-15T11:35:02.032Z,30.38
2016-09-15T11:36:01.793Z,31.54
2016-09-15T11:37:01.393Z,31.31
2016-09-15T11:38:03.061Z,30.59
2016-09-15T11:39:01.517Z,30.69
2016-09-15T11:40:02.217Z,30.79
2016-09-15T11:41:01.384Z,31.6
2016-09-15T11:42:04.935Z,31.49
2016-09-15T11:43:02.125Z,30.18
2016-09-15T11:44:01.705Z,31.69
2016-09-15T11:45:03.148Z,30.26
2016-09-15T11:46:02.474Z,30.09
2016-09-15T11:47:02.929Z,30.66
2016-09-15T11:48:02.066Z,31.26
2016-09-15T11:49:01.733Z,30.71
2016-09-15T11:50:04.020Z,30.47
2016-09-15T11:51:02.272Z,29.41
2016-09-15T11:52:02.336Z,30.1
2016-09-15T11:53:02.347Z,30.47
2016-09-15T11:54:02.314Z,29.21
2016-09-15T11:55:03.580Z,30.09
2016-09-15T11:56:02.247Z,30.15
2016-09-15T11:57:02.181Z,29.39
2016-09-15T11:58:02.509Z,29.02
2016-09-15T11:59:02.677Z,29.98
2016-09-15T12:00:03.711Z,29.2
2016-09-15T12:01:03.395Z,28.92
2016-09-15T12:02:02.997Z,28.82
2016-09-15T12:03:02.976Z,28.05
2016-09-15T12:04:03.166Z,28.44
2016-09-15T12:05:03.177Z,29.71
2016-09-15T12:06:03.589Z,28.72
2016-09-15T12:07:03.972Z,29.31
2016-09-15T12:08:04.081Z,28.14
2016-09-15T12:09:02.401Z,28.47
2016-09-15T12:10:02.871Z,29.34
2016-09-15T12:11:03.704Z,29.73
2016-09-15T12:12:04.385Z,29.88
2016-09-15T12:13:04.188Z,28.54
2016-09-15T12:14:05.648Z,28.64
2016-09-15T12:15:04.403Z,29.31
2016-09-15T12:16:03.783Z,28.71
2016-09-15T12:17:03.924Z,28.34
2016-09-15T12:18:03.226Z,28.54
2016-09-15T12:19:04.211Z,28.34
2016-09-15T12:20:04.248Z,29.22
2016-09-15T12:21:03.235Z,28.63
2016-09-15T12:22:03.513Z,28.83
2016-09-15T12:23:03.101Z,28.82
2016-09-15T12:24:03.370Z,29.42
2016-09-15T12:25:03.480Z,27.49
2016-09-15T12:26:03.657Z,26.7
2016-09-15T12:27:05.478Z,26.61
2016-09-15T12:28:04.055Z,27.78
2016-09-15T12:29:03.168Z,28.05
2016-09-15T12:30:03.239Z,28.15
2016-09-15T12:31:03.814Z,28.25
2016-09-15T12:32:04.657Z,26.77
2016-09-15T12:33:03.524Z,27.09
2016-09-15T12:34:03.869Z,26.7
2016-09-15T12:35:03.635Z,26.7
2016-09-15T12:36:05.291Z,26.68
2016-09-15T12:37:04.497Z,26.71
2016-09-15T12:38:03.370Z,27.94
2016-09-15T12:39:03.124Z,28.72
2016-09-15T12:40:03.572Z,27.93
2016-09-15T12:41:04.381Z,28.04
2016-09-15T12:42:04.366Z,27.95
2016-09-15T12:43:04.564Z,29.28
2016-09-15T12:44:04.354Z,28.92
2016-09-15T12:45:04.497Z,28
2016-09-15T12:46:04.342Z,27.95
2016-09-15T12:47:04.144Z,27.28
2016-09-15T12:48:04.448Z,27.17
2016-09-15T12:49:04.846Z,27.58
2016-09-15T12:50:04.043Z,26.71
2016-09-15T12:51:05.966Z,27.47
2016-09-15T12:52:04.376Z,27.77
2016-09-15T12:53:04.525Z,27.47
2016-09-15T12:54:04.848Z,28.32
2016-09-15T12:55:04.520Z,27.44
2016-09-15T12:56:04.999Z,28.25
2016-09-15T12:57:03.973Z,26.11
2016-09-15T12:58:04.298Z,26.9
2016-09-15T12:59:04.889Z,27.98
2016-09-15T13:00:04.554Z,27.17
2016-09-15T13:01:05.505Z,26.15
2016-09-15T13:02:04.959Z,26.22
2016-09-15T13:03:04.831Z,26.43
2016-09-15T13:04:05.661Z,27.03
2016-09-15T13:05:05.223Z,26.89
2016-09-15T13:06:04.503Z,27.28
2016-09-15T13:07:04.500Z,26.57
2016-09-15T13:08:04.920Z,26.4
2016-09-15T13:09:05.194Z,27.67
2016-09-15T13:10:04.830Z,26.89
2016-09-15T13:11:04.936Z,25.93
2016-09-15T13:12:04.686Z,27.78
2016-09-15T13:13:05.689Z,26.2
2016-09-15T13:14:05.974Z,25.93
2016-09-15T13:15:05.583Z,26.31
2016-09-15T13:16:05.740Z,27.69
2016-09-15T13:17:05.279Z,26.6
2016-09-15T13:18:05.538Z,26.5
2016-09-15T13:19:05.332Z,27.06
2016-09-15T13:20:05.453Z,27.37
2016-09-15T13:21:05.271Z,26.31
2016-09-15T13:22:05.951Z,25.62
2016-09-15T13:23:05.475Z,26.14
2016-09-15T13:24:06.357Z,26.79
2016-09-15T13:25:06.479Z,26.03
2016-09-15T13:26:05.591Z,26.14
2016-09-15T13:27:06.018Z,26.71
2016-09-15T13:28:06.285Z,27.25
2016-09-15T13:29:04.967Z,24.54
2016-09-15T13:30:05.627Z,24.08
2016-09-15T13:31:05.679Z,24.18
2016-09-15T13:32:06.428Z,24.68
2016-09-15T13:33:06.153Z,25.55
2016-09-15T13:34:05.911Z,26.61
2016-09-15T13:35:05.617Z,26.6
2016-09-15T13:36:05.580Z,26.6
2016-09-15T13:37:06.017Z,27.84
2016-09-15T13:38:05.875Z,26.56
2016-09-15T13:39:06.041Z,26.5
2016-09-15T13:40:06.120Z,25.54
2016-09-15T13:41:07.701Z,26.22
2016-09-15T13:42:05.850Z,26.33
2016-09-15T13:43:06.665Z,25.06
2016-09-15T13:44:06.501Z,24.09
2016-09-15T13:45:06.317Z,25.17
2016-09-15T13:46:05.920Z,25.16
2016-09-15T13:47:05.759Z,25.27
2016-09-15T13:48:07.004Z,25.16
2016-09-15T13:49:06.211Z,25.06
2016-09-15T13:50:05.908Z,24.86
2016-09-15T13:51:08.291Z,24.77
2016-09-15T13:52:06.791Z,26.15
2016-09-15T13:53:07.661Z,25.83
2016-09-15T13:54:06.316Z,26.33
2016-09-15T13:55:07.341Z,25.82
2016-09-15T13:56:06.352Z,26.22
2016-09-15T13:57:05.655Z,26.03
2016-09-15T13:58:06.907Z,26.31
2016-09-15T13:59:07.007Z,25.73
2016-09-15T14:00:06.855Z,25.07
2016-09-15T14:01:07.169Z,24.79
2016-09-15T14:02:06.497Z,25.17
2016-09-15T14:03:07.133Z,24.59
2016-09-15T14:04:06.943Z,24.37
2016-09-15T14:05:06.988Z,24.97
2016-09-15T14:06:06.679Z,25.17
2016-09-15T14:07:06.788Z,26.33
2016-09-15T14:08:06.907Z,25.12
2016-09-15T14:09:09.027Z,24.47
2016-09-15T14:10:07.447Z,25.16
2016-09-15T14:11:07.903Z,26.42
2016-09-15T14:12:06.986Z,25.21
2016-09-15T14:13:07.118Z,25.22
2016-09-15T14:14:06.927Z,26.23
2016-09-15T14:15:07.475Z,25.24
2016-09-15T14:16:07.535Z,25.15
2016-09-15T14:17:07.021Z,25.24
2016-09-15T14:18:07.179Z,24.29
2016-09-15T14:19:06.952Z,25.09
2016-09-15T14:20:07.477Z,24.57
2016-09-15T14:21:07.056Z,25.65
2016-09-15T14:22:06.950Z,25.62
2016-09-15T14:23:07.151Z,25.84
2016-09-15T14:24:08.989Z,26.4
2016-09-15T14:25:07.934Z,25.81
2016-09-15T14:26:08.282Z,24.77
2016-09-15T14:27:08.116Z,24.66
2016-09-15T14:28:08.954Z,25.17
2016-09-15T14:29:07.989Z,24.75
2016-09-15T14:30:08.138Z,25.61
2016-09-15T14:31:07.767Z,25.9
2016-09-15T14:32:08.422Z,25.7
2016-09-15T14:33:07.313Z,24.64
2016-09-15T14:34:08.118Z,24.46
2016-09-15T14:35:07.705Z,24.57
2016-09-15T14:36:08.505Z,24.68
2016-09-15T14:37:08.754Z,25.26
2016-09-15T14:38:08.244Z,24.95
2016-09-15T14:39:07.594Z,24.18
2016-09-15T14:40:08.755Z,24.68
2016-09-15T14:41:08.322Z,24.08
2016-09-15T14:42:08.226Z,24.01
2016-09-15T14:43:07.944Z,23.99
2016-09-15T14:44:09.129Z,23.6
2016-09-15T14:45:07.737Z,24.08
2016-09-15T14:46:08.751Z,23.69
2016-09-15T14:47:08.761Z,23.77
2016-09-15T14:48:08.187Z,24.53
2016-09-15T14:49:08.133Z,25.15
2016-09-15T14:50:08.760Z,25.23
2016-09-15T14:51:07.752Z,24.43
2016-09-15T14:52:08.942Z,25.16
2016-09-15T14:53:09.051Z,24.18
2016-09-15T14:54:08.770Z,24.76
2016-09-15T14:55:09.069Z,24.93
2016-09-15T14:56:08.638Z,25.72
2016-09-15T14:57:09.226Z,25.21
2016-09-15T14:58:09.197Z,24.82
2016-09-15T14:59:09.660Z,23.75
2016-09-15T15:00:08.189Z,24.65
2016-09-15T15:01:08.813Z,24.73
2016-09-15T15:02:08.901Z,24.44
2016-09-15T15:03:09.317Z,24.42
2016-09-15T15:04:08.798Z,24.24
2016-09-15T15:05:09.708Z,24.14
2016-09-15T15:06:08.903Z,24.74
2016-09-15T15:07:09.796Z,24.63
2016-09-15T15:08:09.781Z,24.82
2016-09-15T15:09:08.542Z,25.22
2016-09-15T15:10:09.435Z,25.71
2016-09-15T15:11:08.588Z,25.81
2016-09-15T15:12:10.637Z,24.74
2016-09-15T15:13:09.716Z,24.91
2016-09-15T15:14:09.538Z,0
2016-09-15T15:15:09.354Z,0
2016-09-15T15:16:09.479Z,0
2016-09-15T15:17:10.160Z,0
2016-09-15T15:18:10.199Z,0
2016-09-15T15:19:09.206Z,0
2016-09-15T15:20:09.099Z,0
2016-09-15T15:21:09.456Z,0
2016-09-15T15:22:09.563Z,0
2016-09-15T15:23:09.180Z,0
2016-09-15T15:24:10.112Z,0
2016-09-15T15:25:09.230Z,0
2016-09-15T15:26:09.573Z,0
2016-09-15T15:27:10.134Z,0
2016-09-15T15:28:09.872Z,0
2016-09-15T15:29:09.778Z,0
2016-09-15T15:30:09.401Z,0
2016-09-15T15:31:09.585Z,0
2016-09-15T15:32:10.301Z,0
2016-09-15T15:33:10.680Z,0
2016-09-15T15:34:09.669Z,0
2016-09-15T15:35:10.259Z,0
2016-09-15T15:36:09.865Z,0
2016-09-15T15:37:10.039Z,0
2016-09-15T15:38:10.211Z,0
2016-09-15T15:39:10.928Z,0
2016-09-15T15:40:10.663Z,0
2016-09-15T15:41:10.186Z,0
2016-09-15T15:42:11.759Z,0
2016-09-15T15:43:10.049Z,0
2016-09-15T15:44:10.491Z,0
2016-09-15T15:45:10.549Z,0
2016-09-15T15:46:09.939Z,0
2016-09-15T15:47:11.065Z,0
2016-09-15T15:48:10.636Z,0
2016-09-15T15:49:10.463Z,0
2016-09-15T15:50:11.058Z,0
2016-09-15T15:51:10.616Z,0
2016-09-15T15:52:11.253Z,0
2016-09-15T15:53:10.631Z,0
2016-09-15T15:54:10.788Z,0
2016-09-15T15:55:09.751Z,0
2016-09-15T15:56:10.181Z,0
2016-09-15T15:57:10.555Z,0
2016-09-15T15:58:11.122Z,0
2016-09-15T15:59:10.772Z,0
2016-09-15T16:00:10.538Z,0
2016-09-15T16:01:11.528Z,0
2016-09-15T16:02:10.402Z,0
2016-09-15T16:03:10.896Z,0
2016-09-15T16:04:10.682Z,0
2016-09-15T16:05:10.515Z,0
2016-09-15T16:06:12.103Z,0
2016-09-15T16:07:10.532Z,0
2016-09-15T16:08:11.275Z,0
2016-09-15T16:09:41.591Z,26.12
2016-09-15T16:10:40.808Z,26.32
2016-09-15T16:11:41.663Z,26.34
2016-09-15T16:12:41.521Z,26.23
2016-09-15T16:13:41.337Z,26.21
2016-09-15T16:14:41.323Z,27.87
2016-09-15T16:15:41.955Z,26.89
2016-09-15T16:16:41.671Z,26.4
2016-09-15T16:17:41.913Z,27.3
2016-09-15T16:18:42.351Z,26.61
2016-09-15T16:19:42.507Z,27.87
2016-09-15T16:20:41.592Z,27.47
2016-09-15T16:21:41.638Z,27.78
2016-09-15T16:22:41.270Z,28.07
2016-09-15T16:23:42.180Z,28.05
2016-09-15T16:24:42.449Z,28.26
2016-09-15T16:25:42.134Z,27.95
2016-09-15T16:26:42.301Z,28.18
2016-09-15T16:27:42.518Z,28.75
2016-09-15T16:28:42.301Z,27.95
2016-09-15T16:29:42.293Z,28.25
2016-09-15T16:30:42.290Z,28.25
2016-09-15T16:31:42.232Z,27.95
2016-09-15T16:32:42.936Z,28.74
2016-09-15T16:33:42.392Z,29.02
2016-09-15T16:34:42.261Z,28.61
2016-09-15T16:35:42.409Z,28.43
2016-09-15T16:36:41.752Z,28.51
2016-09-15T16:37:42.414Z,28.92
2016-09-15T16:38:42.550Z,28.42
2016-09-15T16:39:41.736Z,28.72
2016-09-15T16:40:42.670Z,29.58
2016-09-15T16:41:42.902Z,29.19
2016-09-15T16:42:42.357Z,29.78
2016-09-15T16:43:42.692Z,29.29
2016-09-15T16:44:43.118Z,29.49
2016-09-15T16:45:43.175Z,30.65
2016-09-15T16:46:42.130Z,31.13
2016-09-15T16:47:43.019Z,31.11
2016-09-15T16:48:43.005Z,30.72
2016-09-15T16:49:43.036Z,30.24
2016-09-15T16:50:42.585Z,30.33
2016-09-15T16:51:43.461Z,30.24
2016-09-15T16:52:42.903Z,30.72
2016-09-15T16:53:42.592Z,31.13
2016-09-15T16:54:43.510Z,31.01
2016-09-15T16:55:42.600Z,30.14
2016-09-15T16:56:43.129Z,30.72
2016-09-15T16:57:43.172Z,31.11
2016-09-15T16:58:43.109Z,30.8
2016-09-15T16:59:42.575Z,30.52
2016-09-15T17:00:42.740Z,30.9
2016-09-15T17:01:42.300Z,30.61
2016-09-15T17:02:42.649Z,31.38
2016-09-15T17:03:43.269Z,31.97
2016-09-15T17:04:43.526Z,31.68
2016-09-15T17:05:42.561Z,31.68
2016-09-15T17:06:42.949Z,31.77
2016-09-15T17:07:42.836Z,31.87
2016-09-15T17:08:44.593Z,32.05
2016-09-15T17:09:42.405Z,32.44
2016-09-15T17:10:42.866Z,32.05
2016-09-15T17:11:45.013Z,32.34
2016-09-15T17:12:44.828Z,32.34
2016-09-15T17:13:43.261Z,32.44
2016-09-15T17:14:43.303Z,32.44
2016-09-15T17:15:43.782Z,33.02
2016-09-15T17:16:43.357Z,32.62
2016-09-15T17:17:43.163Z,32.62
2016-09-15T17:18:42.903Z,33.78
2016-09-15T17:19:43.697Z,33.47
2016-09-15T17:20:44.798Z,33.2
2016-09-15T17:21:43.808Z,32.52
2016-09-15T17:22:43.105Z,33.11
2016-09-15T17:23:43.680Z,33.78
2016-09-15T17:24:43.478Z,33.96
2016-09-15T17:25:43.293Z,33.86
2016-09-15T17:26:43.613Z,34.04
2016-09-15T17:27:43.078Z,34.43
2016-09-15T17:28:44.713Z,34.62
2016-09-15T17:29:44.436Z,34.81
2016-09-15T17:30:43.289Z,34.72
2016-09-15T17:31:43.728Z,34.62
2016-09-15T17:32:43.678Z,35.01
2016-09-15T17:33:43.624Z,35.86
2016-09-15T17:34:44.553Z,35.48
2016-09-15T17:35:43.746Z,35.28
2016-09-15T17:36:43.599Z,35.28
2016-09-15T17:37:44.270Z,35.59
2016-09-15T17:38:47.193Z,35.77
2016-09-15T17:39:44.183Z,35.46
2016-09-15T17:40:44.199Z,35.48
2016-09-15T17:41:44.498Z,35.09
2016-09-15T17:42:44.916Z,35.38
2016-09-15T17:43:43.676Z,36.06
2016-09-15T17:44:44.618Z,36.54
2016-09-15T17:45:43.673Z,37.01
2016-09-15T17:46:43.608Z,37.11
2016-09-15T17:47:44.370Z,37.01
2016-09-15T17:48:45.249Z,36.83
2016-09-15T17:49:44.466Z,37.21
2016-09-15T17:50:43.740Z,36.91
2016-09-15T17:51:44.616Z,37.48
2016-09-15T17:52:43.610Z,36.9
2016-09-15T17:53:45.264Z,36.99
2016-09-15T17:54:44.759Z,36.9
2016-09-15T17:55:44.787Z,36.52
2016-09-15T17:56:44.252Z,37.69
2016-09-15T17:57:44.939Z,37.38
2016-09-15T17:58:45.645Z,37.96
2016-09-15T17:59:44.797Z,37.85
2016-09-15T18:00:44.916Z,37.77
2016-09-15T18:01:45.017Z,37.77
2016-09-15T18:02:45.156Z,37.38
2016-09-15T18:03:45.799Z,37.94
2016-09-15T18:04:44.650Z,37.94
2016-09-15T18:05:45.983Z,37.94
2016-09-15T18:06:44.523Z,38.13
2016-09-15T18:07:45.248Z,38.23
2016-09-15T18:08:44.492Z,38.53
2016-09-15T18:09:45.259Z,38.13
2016-09-15T18:10:44.390Z,38.43
2016-09-15T18:11:45.589Z,39.28
2016-09-15T18:12:44.573Z,39.47
2016-09-15T18:13:45.232Z,39.28
2016-09-15T18:14:45.082Z,39.76
2016-09-15T18:15:44.422Z,39.47
2016-09-15T18:16:44.316Z,39.95
2016-09-15T18:17:44.866Z,41.02
2016-09-15T18:18:44.890Z,40.61
2016-09-15T18:19:44.469Z,40.9
2016-09-15T18:20:45.442Z,41.39
2016-09-15T18:21:45.349Z,40.92
2016-09-15T18:22:44.606Z,41.41
2016-09-15T18:23:45.082Z,41.58
2016-09-15T18:24:45.533Z,41.39
2016-09-15T18:25:45.024Z,41.39
2016-09-15T18:26:44.750Z,42.07
2016-09-15T18:27:44.067Z,41.58
2016-09-15T18:28:44.393Z,42.07
2016-09-15T18:29:45.214Z,42.16
2016-09-15T18:30:45.510Z,42.93
2016-09-15T18:31:45.863Z,42.07
2016-09-15T18:32:44.867Z,42.07
2016-09-15T18:33:45.023Z,42.16
2016-09-15T18:34:46.303Z,42.93
2016-09-15T18:35:45.322Z,42.82
2016-09-15T18:36:45.118Z,43.59
2016-09-15T18:37:45.588Z,43.59
2016-09-15T18:38:45.414Z,43.2
2016-09-15T18:39:45.799Z,43.88
2016-09-15T18:40:45.899Z,44.05
2016-09-15T18:41:46.190Z,45.04
2016-09-15T18:42:45.589Z,46.08
2016-09-15T18:43:45.269Z,45.76
2016-09-15T18:44:45.975Z,45.96
2016-09-15T18:45:45.089Z,46.08
2016-09-15T18:46:45.795Z,45.86
2016-09-15T18:47:45.958Z,47.89
2016-09-15T18:48:45.915Z,47.96
2016-09-15T18:49:45.391Z,47
2016-09-15T18:50:46.379Z,48.08
2016-09-15T18:51:45.962Z,48.93
2016-09-15T18:52:45.639Z,47.09
2016-09-15T18:53:46.435Z,47.5
2016-09-15T18:54:45.939Z,48.25
2016-09-15T18:55:45.022Z,48.9
2016-09-15T18:56:45.521Z,49.6
2016-09-15T18:57:46.402Z,49.7
2016-09-15T18:58:45.558Z,50.26
2016-09-15T18:59:45.981Z,50.54
2016-09-15T19:00:45.837Z,50.26
2016-09-15T19:01:45.842Z,50.45
2016-09-15T19:02:46.689Z,50.64
2016-09-15T19:03:46.223Z,50.35
2016-09-15T19:04:46.149Z,50.23
2016-09-15T19:05:46.245Z,50.81
2016-09-15T19:06:46.078Z,50.26
2016-09-15T19:07:46.473Z,49.96
2016-09-15T19:08:45.445Z,50.62
2016-09-15T19:09:46.708Z,50.32
2016-09-15T19:10:46.208Z,50.54
2016-09-15T19:11:45.521Z,50.32
2016-09-15T19:12:46.838Z,50.26
2016-09-15T19:13:46.938Z,51.29
2016-09-15T19:14:46.638Z,50.9
2016-09-15T19:15:46.591Z,50.52
2016-09-15T19:16:47.706Z,50.62
2016-09-15T19:17:46.582Z,50.81
2016-09-15T19:18:47.094Z,51.29
2016-09-15T19:19:46.184Z,50.98
2016-09-15T19:20:46.670Z,51.68
2016-09-15T19:21:46.488Z,50.88
2016-09-15T19:22:47.012Z,52.04
2016-09-15T19:23:47.597Z,52.13
2016-09-15T19:24:46.224Z,52.81
2016-09-15T19:25:46.412Z,52.81
2016-09-15T19:26:46.100Z,53.58
2016-09-15T19:27:46.649Z,53.19
2016-09-15T19:28:46.033Z,53.09
2016-09-15T19:29:47.487Z,53.58
2016-09-15T19:30:45.966Z,53.27
2016-09-15T19:31:46.470Z,54.54
2016-09-15T19:32:46.795Z,55.09
2016-09-15T19:33:47.481Z,56.35
2016-09-15T19:34:46.659Z,56.15
2016-09-15T19:35:47.617Z,56.15
2016-09-15T19:36:46.900Z,55.19
2016-09-15T19:37:47.667Z,55
2016-09-15T19:38:46.581Z,55.38
2016-09-15T19:39:46.426Z,55.57
2016-09-15T19:40:46.512Z,54.71
2016-09-15T19:41:47.553Z,55.09
2016-09-15T19:42:46.837Z,55.77
2016-09-15T19:43:46.783Z,55.77
2016-09-15T19:44:47.094Z,56.25